sensor_id;sensor_type;location;lat;lon;timestamp;pressure;altitude;pressure_sealevel;temperature;humidity
63708;BME280;67643;-34.198;22.084;2023-04-28T00:09:44;100363.00;;;17.50;53.88
63708;BME280;67643;-34.198;22.084;2023-04-28T00:12:13;100355.99;;;19.10;49.27
63708;BME280;67643;-34.198;22.084;2023-04-28T00:14:41;100352.71;;;19.41;46.39
63708;BME280;67643;-34.198;22.084;2023-04-28T00:17:10;100344.28;;;19.97;44.32
63708;BME280;67643;-34.198;22.084;2023-04-28T00:19:38;100345.32;;;20.55;44.14
63708;BME280;67643;-34.198;22.084;2023-04-28T00:22:07;100342.10;;;20.90;43.23
63708;BME280;67643;-34.198;22.084;2023-04-28T00:24:36;100344.02;;;21.46;42.60
63708;BME280;67643;-34.198;22.084;2023-04-28T00:27:04;100345.40;;;21.17;42.29
63708;BME280;67643;-34.198;22.084;2023-04-28T00:29:32;100339.63;;;21.24;42.31
63708;BME280;67643;-34.198;22.084;2023-04-28T00:32:01;100341.02;;;21.15;41.76
63708;BME280;67643;-34.198;22.084;2023-04-28T00:34:32;100338.50;;;21.05;41.78
63708;BME280;67643;-34.198;22.084;2023-04-28T00:37:01;100336.54;;;21.70;41.49
63708;BME280;67643;-34.198;22.084;2023-04-28T00:39:30;100333.34;;;21.34;41.26
63708;BME280;67643;-34.198;22.084;2023-04-28T00:41:58;100330.16;;;21.65;41.12
63708;BME280;67643;-34.198;22.084;2023-04-28T00:44:27;100330.69;;;21.44;41.01
63708;BME280;67643;-34.198;22.084;2023-04-28T00:46:56;100331.65;;;21.52;39.89
63708;BME280;67643;-34.198;22.084;2023-04-28T00:49:25;100329.07;;;21.33;39.71
63708;BME280;67643;-34.198;22.084;2023-04-28T00:51:54;100329.19;;;20.95;40.12
63708;BME280;67643;-34.198;22.084;2023-04-28T00:54:22;100325.18;;;20.53;40.85
63708;BME280;67643;-34.198;22.084;2023-04-28T00:56:51;100328.22;;;20.68;40.45
63708;BME280;67643;-34.198;22.084;2023-04-28T00:59:19;100328.08;;;21.01;39.79
63708;BME280;67643;-34.198;22.084;2023-04-28T01:01:47;100332.30;;;21.23;41.02
63708;BME280;67643;-34.198;22.084;2023-04-28T01:04:19;100329.80;;;20.72;40.83
63708;BME280;67643;-34.198;22.084;2023-04-28T01:06:48;100326.45;;;20.99;41.11
63708;BME280;67643;-34.198;22.084;2023-04-28T01:09:18;100322.88;;;21.09;40.98
63708;BME280;67643;-34.198;22.084;2023-04-28T01:11:47;100324.19;;;20.95;40.65
63708;BME280;67643;-34.198;22.084;2023-04-28T01:14:16;100321.90;;;20.36;41.39
63708;BME280;67643;-34.198;22.084;2023-04-28T01:16:44;100325.20;;;21.20;41.05
63708;BME280;67643;-34.198;22.084;2023-04-28T01:19:19;100319.44;;;20.51;41.32
63708;BME280;67643;-34.198;22.084;2023-04-28T01:21:47;100322.17;;;21.04;40.50
63708;BME280;67643;-34.198;22.084;2023-04-28T01:24:15;100315.59;;;20.74;40.70
63708;BME280;67643;-34.198;22.084;2023-04-28T01:26:44;100314.36;;;20.79;40.35
63708;BME280;67643;-34.198;22.084;2023-04-28T01:29:12;100316.71;;;21.46;39.28
63708;BME280;67643;-34.198;22.084;2023-04-28T01:31:41;100312.42;;;20.54;40.59
63708;BME280;67643;-34.198;22.084;2023-04-28T01:34:09;100311.70;;;20.20;41.08
63708;BME280;67643;-34.198;22.084;2023-04-28T01:36:38;100308.48;;;20.82;40.19
63708;BME280;67643;-34.198;22.084;2023-04-28T01:39:06;100307.48;;;20.95;40.24
63708;BME280;67643;-34.198;22.084;2023-04-28T01:41:35;100308.24;;;21.26;39.15
63708;BME280;67643;-34.198;22.084;2023-04-28T01:44:03;100304.26;;;20.44;41.74
63708;BME280;67643;-34.198;22.084;2023-04-28T01:46:31;100305.03;;;20.76;41.38
63708;BME280;67643;-34.198;22.084;2023-04-28T01:49:00;100306.99;;;21.07;40.08
63708;BME280;67643;-34.198;22.084;2023-04-28T01:51:28;100304.33;;;20.69;40.11
63708;BME280;67643;-34.198;22.084;2023-04-28T01:53:56;100299.08;;;20.54;40.12
63708;BME280;67643;-34.198;22.084;2023-04-28T01:56:25;100299.12;;;20.35;40.59
63708;BME280;67643;-34.198;22.084;2023-04-28T01:58:53;100294.62;;;20.64;40.01
63708;BME280;67643;-34.198;22.084;2023-04-28T02:01:22;100295.65;;;20.49;40.35
63708;BME280;67643;-34.198;22.084;2023-04-28T02:03:50;100295.82;;;20.42;40.08
63708;BME280;67643;-34.198;22.084;2023-04-28T02:06:18;100291.98;;;20.17;40.31
63708;BME280;67643;-34.198;22.084;2023-04-28T02:08:47;100296.93;;;21.21;39.54
63708;BME280;67643;-34.198;22.084;2023-04-28T02:11:16;100290.04;;;20.85;40.61
63708;BME280;67643;-34.198;22.084;2023-04-28T02:13:44;100294.51;;;21.01;39.74
63708;BME280;67643;-34.198;22.084;2023-04-28T02:16:13;100295.22;;;21.16;39.55
63708;BME280;67643;-34.198;22.084;2023-04-28T02:18:42;100292.13;;;20.33;41.07
63708;BME280;67643;-34.198;22.084;2023-04-28T02:21:10;100290.38;;;21.04;40.16
63708;BME280;67643;-34.198;22.084;2023-04-28T02:23:39;100289.04;;;21.33;39.67
63708;BME280;67643;-34.198;22.084;2023-04-28T02:26:08;100289.36;;;21.10;39.51
63708;BME280;67643;-34.198;22.084;2023-04-28T02:28:37;100286.05;;;21.01;39.66
63708;BME280;67643;-34.198;22.084;2023-04-28T02:31:08;100283.90;;;21.08;39.58
63708;BME280;67643;-34.198;22.084;2023-04-28T02:33:38;100281.16;;;20.68;40.04
63708;BME280;67643;-34.198;22.084;2023-04-28T02:36:06;100276.57;;;20.28;41.19
63708;BME280;67643;-34.198;22.084;2023-04-28T02:38:35;100276.99;;;21.05;39.84
63708;BME280;67643;-34.198;22.084;2023-04-28T02:41:05;100275.59;;;20.93;39.28
63708;BME280;67643;-34.198;22.084;2023-04-28T02:43:34;100276.12;;;20.68;39.67
63708;BME280;67643;-34.198;22.084;2023-04-28T02:46:03;100280.77;;;20.95;38.65
63708;BME280;67643;-34.198;22.084;2023-04-28T02:48:32;100281.87;;;20.95;39.35
63708;BME280;67643;-34.198;22.084;2023-04-28T02:51:01;100283.94;;;20.95;39.56
63708;BME280;67643;-34.198;22.084;2023-04-28T02:53:29;100282.39;;;20.75;40.08
63708;BME280;67643;-34.198;22.084;2023-04-28T02:55:58;100286.03;;;19.58;41.10
63708;BME280;67643;-34.198;22.084;2023-04-28T02:58:26;100283.78;;;20.14;40.43
63708;BME280;67643;-34.198;22.084;2023-04-28T03:00:55;100284.86;;;20.26;40.69
63708;BME280;67643;-34.198;22.084;2023-04-28T03:03:23;100281.42;;;19.88;40.84
63708;BME280;67643;-34.198;22.084;2023-04-28T03:05:52;100282.22;;;20.51;40.06
63708;BME280;67643;-34.198;22.084;2023-04-28T03:08:20;100283.58;;;19.57;41.62
63708;BME280;67643;-34.198;22.084;2023-04-28T03:10:48;100284.14;;;20.07;40.22
63708;BME280;67643;-34.198;22.084;2023-04-28T03:13:17;100287.21;;;19.77;41.60
63708;BME280;67643;-34.198;22.084;2023-04-28T03:15:46;100290.76;;;20.27;40.76
63708;BME280;67643;-34.198;22.084;2023-04-28T03:18:15;100291.60;;;20.40;40.82
63708;BME280;67643;-34.198;22.084;2023-04-28T03:20:43;100292.72;;;19.84;40.95
63708;BME280;67643;-34.198;22.084;2023-04-28T03:23:12;100291.36;;;19.71;41.75
63708;BME280;67643;-34.198;22.084;2023-04-28T03:25:40;100290.04;;;19.46;41.72
63708;BME280;67643;-34.198;22.084;2023-04-28T03:28:09;100295.07;;;19.92;41.49
63708;BME280;67643;-34.198;22.084;2023-04-28T03:30:37;100295.28;;;20.02;41.02
63708;BME280;67643;-34.198;22.084;2023-04-28T03:33:06;100297.72;;;19.32;41.19
63708;BME280;67643;-34.198;22.084;2023-04-28T03:35:34;100304.00;;;19.78;41.49
63708;BME280;67643;-34.198;22.084;2023-04-28T03:38:03;100301.92;;;20.03;41.05
63708;BME280;67643;-34.198;22.084;2023-04-28T03:40:31;100299.87;;;20.74;39.58
63708;BME280;67643;-34.198;22.084;2023-04-28T03:43:00;100296.91;;;20.26;40.99
63708;BME280;67643;-34.198;22.084;2023-04-28T03:45:28;100297.48;;;20.11;41.97
63708;BME280;67643;-34.198;22.084;2023-04-28T03:47:57;100293.89;;;20.61;41.27
63708;BME280;67643;-34.198;22.084;2023-04-28T03:50:25;100295.79;;;20.85;41.32
63708;BME280;67643;-34.198;22.084;2023-04-28T03:52:54;100292.93;;;20.26;41.28
63708;BME280;67643;-34.198;22.084;2023-04-28T03:55:23;100293.51;;;20.57;41.36
63708;BME280;67643;-34.198;22.084;2023-04-28T03:57:51;100290.86;;;20.33;41.39
63708;BME280;67643;-34.198;22.084;2023-04-28T04:00:20;100289.10;;;20.63;41.28
63708;BME280;67643;-34.198;22.084;2023-04-28T04:02:48;100292.13;;;20.51;40.98
63708;BME280;67643;-34.198;22.084;2023-04-28T04:05:16;100290.71;;;20.24;41.29
63708;BME280;67643;-34.198;22.084;2023-04-28T04:07:44;100289.16;;;20.60;40.91
63708;BME280;67643;-34.198;22.084;2023-04-28T04:10:13;100290.97;;;20.41;41.18
63708;BME280;67643;-34.198;22.084;2023-04-28T04:12:42;100295.06;;;20.71;40.74
63708;BME280;67643;-34.198;22.084;2023-04-28T04:15:10;100302.42;;;20.56;40.92
63708;BME280;67643;-34.198;22.084;2023-04-28T04:17:39;100302.87;;;20.23;41.03
63708;BME280;67643;-34.198;22.084;2023-04-28T04:20:09;100304.50;;;20.43;41.11
63708;BME280;67643;-34.198;22.084;2023-04-28T04:22:37;100308.75;;;20.59;40.84
63708;BME280;67643;-34.198;22.084;2023-04-28T04:25:06;100308.42;;;20.37;41.09
63708;BME280;67643;-34.198;22.084;2023-04-28T04:27:35;100312.56;;;20.69;40.61
63708;BME280;67643;-34.198;22.084;2023-04-28T04:30:04;100314.03;;;20.38;40.66
63708;BME280;67643;-34.198;22.084;2023-04-28T04:32:33;100317.51;;;20.60;40.59
63708;BME280;67643;-34.198;22.084;2023-04-28T04:35:01;100320.45;;;20.75;40.37
63708;BME280;67643;-34.198;22.084;2023-04-28T04:37:30;100323.55;;;20.63;40.72
63708;BME280;67643;-34.198;22.084;2023-04-28T04:39:58;100323.89;;;20.58;40.43
63708;BME280;67643;-34.198;22.084;2023-04-28T04:42:27;100322.42;;;20.35;40.38
63708;BME280;67643;-34.198;22.084;2023-04-28T04:44:55;100326.15;;;20.62;40.23
63708;BME280;67643;-34.198;22.084;2023-04-28T04:47:24;100334.62;;;20.71;40.05
63708;BME280;67643;-34.198;22.084;2023-04-28T04:49:52;100337.57;;;20.82;39.86
63708;BME280;67643;-34.198;22.084;2023-04-28T04:52:20;100338.17;;;20.64;40.30
63708;BME280;67643;-34.198;22.084;2023-04-28T04:54:49;100337.26;;;20.57;40.42
63708;BME280;67643;-34.198;22.084;2023-04-28T04:57:18;100335.20;;;20.30;40.14
63708;BME280;67643;-34.198;22.084;2023-04-28T04:59:46;100338.76;;;20.64;39.95
63708;BME280;67643;-34.198;22.084;2023-04-28T05:02:15;100344.20;;;20.49;40.17
63708;BME280;67643;-34.198;22.084;2023-04-28T05:04:43;100346.71;;;20.38;40.31
63708;BME280;67643;-34.198;22.084;2023-04-28T05:07:12;100348.45;;;20.46;40.22
63708;BME280;67643;-34.198;22.084;2023-04-28T05:09:40;100347.93;;;20.39;40.32
63708;BME280;67643;-34.198;22.084;2023-04-28T05:12:09;100341.65;;;20.67;39.96
63708;BME280;67643;-34.198;22.084;2023-04-28T05:14:37;100341.76;;;20.83;40.05
63708;BME280;67643;-34.198;22.084;2023-04-28T05:17:05;100343.48;;;20.67;39.98
63708;BME280;67643;-34.198;22.084;2023-04-28T05:19:34;100346.90;;;20.48;40.27
63708;BME280;67643;-34.198;22.084;2023-04-28T05:22:03;100345.83;;;20.89;40.05
63708;BME280;67643;-34.198;22.084;2023-04-28T05:24:31;100346.02;;;20.56;40.22
63708;BME280;67643;-34.198;22.084;2023-04-28T05:27:00;100345.87;;;20.51;40.01
63708;BME280;67643;-34.198;22.084;2023-04-28T05:29:28;100338.42;;;21.19;40.00
63708;BME280;67643;-34.198;22.084;2023-04-28T05:31:57;100334.43;;;20.87;40.11
63708;BME280;67643;-34.198;22.084;2023-04-28T05:34:25;100335.81;;;20.42;40.14
63708;BME280;67643;-34.198;22.084;2023-04-28T05:36:54;100342.24;;;20.47;40.17
63708;BME280;67643;-34.198;22.084;2023-04-28T05:39:23;100346.48;;;20.47;40.46
63708;BME280;67643;-34.198;22.084;2023-04-28T05:41:51;100350.42;;;20.56;40.33
63708;BME280;67643;-34.198;22.084;2023-04-28T05:44:21;100351.07;;;20.73;40.14
63708;BME280;67643;-34.198;22.084;2023-04-28T05:46:49;100353.50;;;20.80;40.04
63708;BME280;67643;-34.198;22.084;2023-04-28T05:49:18;100356.05;;;20.61;40.36
63708;BME280;67643;-34.198;22.084;2023-04-28T05:51:46;100351.30;;;20.99;39.82
63708;BME280;67643;-34.198;22.084;2023-04-28T05:54:15;100352.72;;;20.98;39.87
63708;BME280;67643;-34.198;22.084;2023-04-28T05:56:43;100353.59;;;20.52;39.81
63708;BME280;67643;-34.198;22.084;2023-04-28T05:59:12;100355.01;;;20.79;39.84
63708;BME280;67643;-34.198;22.084;2023-04-28T06:01:40;100358.16;;;21.16;39.67
63708;BME280;67643;-34.198;22.084;2023-04-28T08:06:01;100439.34;;;17.98;51.70
63708;BME280;67643;-34.198;22.084;2023-04-28T08:08:30;100437.14;;;19.07;47.17
63708;BME280;67643;-34.198;22.084;2023-04-28T08:10:59;100437.44;;;20.30;44.46
63708;BME280;67643;-34.198;22.084;2023-04-28T08:13:27;100438.69;;;20.87;42.82
63708;BME280;67643;-34.198;22.084;2023-04-28T08:15:56;100437.82;;;21.45;41.28
63708;BME280;67643;-34.198;22.084;2023-04-28T08:18:25;100439.56;;;21.08;41.46
63708;BME280;67643;-34.198;22.084;2023-04-28T08:20:54;100441.27;;;21.07;40.99
63708;BME280;67643;-34.198;22.084;2023-04-28T08:23:22;100444.51;;;21.78;40.21
63708;BME280;67643;-34.198;22.084;2023-04-28T08:25:50;100442.82;;;21.31;40.27
63708;BME280;67643;-34.198;22.084;2023-04-28T08:28:19;100435.99;;;21.11;40.40
63708;BME280;67643;-34.198;22.084;2023-04-28T08:30:48;100433.14;;;21.73;39.93
63708;BME280;67643;-34.198;22.084;2023-04-28T08:33:16;100427.37;;;21.18;40.18
63708;BME280;67643;-34.198;22.084;2023-04-28T08:35:45;100423.45;;;21.93;39.53
63708;BME280;67643;-34.198;22.084;2023-04-28T08:38:13;100414.71;;;21.75;39.42
63708;BME280;67643;-34.198;22.084;2023-04-28T08:40:42;100411.72;;;21.49;39.71
63708;BME280;67643;-34.198;22.084;2023-04-28T08:43:10;100406.65;;;22.18;38.94
63708;BME280;67643;-34.198;22.084;2023-04-28T08:45:41;100406.37;;;22.04;38.80
63708;BME280;67643;-34.198;22.084;2023-04-28T08:48:16;100408.83;;;21.79;39.51
63708;BME280;67643;-34.198;22.084;2023-04-28T08:50:49;100402.52;;;21.90;38.94
63708;BME280;67643;-34.198;22.084;2023-04-28T08:53:21;100401.47;;;21.42;39.65
63708;BME280;67643;-34.198;22.084;2023-04-28T08:55:54;100402.10;;;21.92;38.91
63708;BME280;67643;-34.198;22.084;2023-04-28T08:58:23;100401.59;;;21.94;38.85
63708;BME280;67643;-34.198;22.084;2023-04-28T09:00:52;100402.08;;;22.21;38.42
63708;BME280;67643;-34.198;22.084;2023-04-28T09:03:21;100401.74;;;22.45;38.35
63708;BME280;67643;-34.198;22.084;2023-04-28T09:05:50;100397.59;;;22.19;38.40
63708;BME280;67643;-34.198;22.084;2023-04-28T09:08:18;100397.20;;;21.68;38.96
63708;BME280;67643;-34.198;22.084;2023-04-28T09:10:48;100392.07;;;21.92;38.72
63708;BME280;67643;-34.198;22.084;2023-04-28T09:13:32;100390.31;;;22.19;38.29
63708;BME280;67643;-34.198;22.084;2023-04-28T09:16:02;100382.20;;;21.98;38.52
63708;BME280;67643;-34.198;22.084;2023-04-28T09:18:30;100369.38;;;22.50;37.93
63708;BME280;67643;-34.198;22.084;2023-04-28T09:21:07;100362.38;;;22.37;38.12
63708;BME280;67643;-34.198;22.084;2023-04-28T09:23:47;100360.38;;;22.05;38.37
63708;BME280;67643;-34.198;22.084;2023-04-28T09:26:16;100359.44;;;22.25;37.77
63708;BME280;67643;-34.198;22.084;2023-04-28T09:28:45;100359.79;;;22.42;37.80
63708;BME280;67643;-34.198;22.084;2023-04-28T09:31:23;100362.02;;;22.45;37.69
63708;BME280;67643;-34.198;22.084;2023-04-28T09:33:59;100365.02;;;22.43;37.52
63708;BME280;67643;-34.198;22.084;2023-04-28T09:36:28;100369.53;;;21.81;38.35
63708;BME280;67643;-34.198;22.084;2023-04-28T09:38:57;100373.22;;;22.09;38.15
63708;BME280;67643;-34.198;22.084;2023-04-28T09:41:36;100368.23;;;22.42;37.42
63708;BME280;67643;-34.198;22.084;2023-04-28T09:44:13;100369.45;;;22.23;37.77
63708;BME280;67643;-34.198;22.084;2023-04-28T09:46:42;100360.08;;;22.08;37.96
63708;BME280;67643;-34.198;22.084;2023-04-28T09:49:11;100357.15;;;22.13;37.93
63708;BME280;67643;-34.198;22.084;2023-04-28T09:51:40;100353.94;;;22.23;37.78
63708;BME280;67643;-34.198;22.084;2023-04-28T09:54:09;100347.39;;;22.40;37.64
63708;BME280;67643;-34.198;22.084;2023-04-28T09:56:40;100338.01;;;22.49;37.62
63708;BME280;67643;-34.198;22.084;2023-04-28T09:59:11;100331.73;;;22.41;37.77
63708;BME280;67643;-34.198;22.084;2023-04-28T10:01:41;100327.25;;;22.77;37.33
63708;BME280;67643;-34.198;22.084;2023-04-28T10:04:10;100326.42;;;22.88;37.23
63708;BME280;67643;-34.198;22.084;2023-04-28T10:06:40;100322.43;;;22.06;38.20
63708;BME280;67643;-34.198;22.084;2023-04-28T10:09:10;100322.01;;;22.24;38.14
63708;BME280;67643;-34.198;22.084;2023-04-28T10:11:38;100325.67;;;22.79;37.53
63708;BME280;67643;-34.198;22.084;2023-04-28T10:14:06;100325.58;;;22.27;38.18
63708;BME280;67643;-34.198;22.084;2023-04-28T10:16:36;100318.07;;;22.99;37.31
63708;BME280;67643;-34.198;22.084;2023-04-28T10:19:05;100322.65;;;22.88;37.20
63708;BME280;67643;-34.198;22.084;2023-04-28T10:21:41;100322.69;;;22.53;37.72
63708;BME280;67643;-34.198;22.084;2023-04-28T10:24:20;100318.03;;;22.79;37.43
63708;BME280;67643;-34.198;22.084;2023-04-28T10:27:08;100318.70;;;23.36;36.97
63708;BME280;67643;-34.198;22.084;2023-04-28T10:29:36;100316.15;;;22.35;38.07
63708;BME280;67643;-34.198;22.084;2023-04-28T10:32:37;100311.44;;;23.18;37.28
63708;BME280;67643;-34.198;22.084;2023-04-28T10:36:17;100306.56;;;22.76;37.39
63708;BME280;67643;-34.198;22.084;2023-04-28T10:39:13;100301.19;;;22.82;37.31
63708;BME280;67643;-34.198;22.084;2023-04-28T10:41:42;100297.33;;;23.00;37.10
63708;BME280;67643;-34.198;22.084;2023-04-28T10:44:45;100293.77;;;23.13;36.95
63708;BME280;67643;-34.198;22.084;2023-04-28T10:47:14;100290.53;;;22.33;37.69
63708;BME280;67643;-34.198;22.084;2023-04-28T10:50:14;100282.56;;;22.61;37.40
63708;BME280;67643;-34.198;22.084;2023-04-28T10:52:50;100277.03;;;23.43;36.71
63708;BME280;67643;-34.198;22.084;2023-04-28T10:55:35;100272.14;;;22.80;36.95
63708;BME280;67643;-34.198;22.084;2023-04-28T10:58:36;100262.02;;;22.90;36.72
63708;BME280;67643;-34.198;22.084;2023-04-28T11:01:31;100258.00;;;23.29;36.22
63708;BME280;67643;-34.198;22.084;2023-04-28T11:04:05;100258.35;;;22.60;37.20
63708;BME280;67643;-34.198;22.084;2023-04-28T11:06:34;100258.57;;;22.96;36.55
63708;BME280;67643;-34.198;22.084;2023-04-28T11:10:00;100261.79;;;23.11;36.67
63708;BME280;67643;-34.198;22.084;2023-04-28T11:12:28;100259.27;;;22.96;36.48
63708;BME280;67643;-34.198;22.084;2023-04-28T11:14:57;100257.06;;;22.15;37.49
63708;BME280;67643;-34.198;22.084;2023-04-28T11:17:40;100258.85;;;22.90;36.57
63708;BME280;67643;-34.198;22.084;2023-04-28T11:20:12;100263.83;;;22.30;37.15
63708;BME280;67643;-34.198;22.084;2023-04-28T11:22:42;100265.08;;;23.29;36.29
63708;BME280;67643;-34.198;22.084;2023-04-28T11:25:10;100264.11;;;23.68;35.80
63708;BME280;67643;-34.198;22.084;2023-04-28T11:27:39;100262.38;;;23.08;36.46
63708;BME280;67643;-34.198;22.084;2023-04-28T11:30:20;100261.41;;;23.75;35.59
63708;BME280;67643;-34.198;22.084;2023-04-28T11:32:50;100261.21;;;23.19;35.97
63708;BME280;67643;-34.198;22.084;2023-04-28T11:35:19;100267.28;;;23.20;36.42
63708;BME280;67643;-34.198;22.084;2023-04-28T11:38:01;100267.54;;;22.95;36.41
63708;BME280;67643;-34.198;22.084;2023-04-28T11:40:29;100266.88;;;22.71;36.69
63708;BME280;67643;-34.198;22.084;2023-04-28T11:42:58;100261.61;;;22.89;36.48
63708;BME280;67643;-34.198;22.084;2023-04-28T11:45:26;100263.75;;;23.60;35.95
63708;BME280;67643;-34.198;22.084;2023-04-28T11:47:54;100266.17;;;23.41;36.17
63708;BME280;67643;-34.198;22.084;2023-04-28T11:50:35;100259.14;;;23.13;36.28
63708;BME280;67643;-34.198;22.084;2023-04-28T11:53:04;100257.86;;;23.61;35.56
63708;BME280;67643;-34.198;22.084;2023-04-28T11:55:33;100258.80;;;23.49;35.24
63708;BME280;67643;-34.198;22.084;2023-04-28T11:58:34;100260.28;;;23.54;35.22
63708;BME280;67643;-34.198;22.084;2023-04-28T12:01:08;100258.72;;;23.17;35.36
63708;BME280;67643;-34.198;22.084;2023-04-28T12:03:45;100259.63;;;23.65;34.78
63708;BME280;67643;-34.198;22.084;2023-04-28T12:06:17;100253.95;;;23.26;35.18
63708;BME280;67643;-34.198;22.084;2023-04-28T12:08:46;100248.40;;;23.92;34.44
63708;BME280;67643;-34.198;22.084;2023-04-28T12:11:16;100246.96;;;24.16;34.52
63708;BME280;67643;-34.198;22.084;2023-04-28T12:14:03;100254.40;;;23.96;34.49
63708;BME280;67643;-34.198;22.084;2023-04-28T12:16:41;100259.07;;;24.42;34.03
63708;BME280;67643;-34.198;22.084;2023-04-28T12:19:11;100258.45;;;23.87;34.37
63708;BME280;67643;-34.198;22.084;2023-04-28T12:21:40;100261.33;;;23.86;34.27
63708;BME280;67643;-34.198;22.084;2023-04-28T12:24:25;100265.11;;;24.65;33.96
63708;BME280;67643;-34.198;22.084;2023-04-28T12:26:54;100262.72;;;24.27;34.23
63708;BME280;67643;-34.198;22.084;2023-04-28T12:29:41;100261.74;;;23.83;35.18
63708;BME280;67643;-34.198;22.084;2023-04-28T12:32:11;100263.36;;;24.32;34.45
63708;BME280;67643;-34.198;22.084;2023-04-28T12:34:40;100263.23;;;24.33;34.46
63708;BME280;67643;-34.198;22.084;2023-04-28T12:37:09;100261.33;;;24.77;34.19
63708;BME280;67643;-34.198;22.084;2023-04-28T12:39:40;100258.04;;;24.60;34.44
63708;BME280;67643;-34.198;22.084;2023-04-28T12:42:08;100256.46;;;24.04;34.53
63708;BME280;67643;-34.198;22.084;2023-04-28T12:44:37;100257.38;;;23.70;35.18
63708;BME280;67643;-34.198;22.084;2023-04-28T12:47:07;100259.69;;;24.21;34.35
63708;BME280;67643;-34.198;22.084;2023-04-28T12:49:36;100255.37;;;24.12;34.95
63708;BME280;67643;-34.198;22.084;2023-04-28T12:52:05;100254.84;;;24.37;34.21
63708;BME280;67643;-34.198;22.084;2023-04-28T12:54:33;100254.70;;;24.79;33.78
63708;BME280;67643;-34.198;22.084;2023-04-28T12:57:01;100261.62;;;24.69;33.58
63708;BME280;67643;-34.198;22.084;2023-04-28T12:59:30;100264.94;;;24.17;34.30
63708;BME280;67643;-34.198;22.084;2023-04-28T13:01:59;100268.99;;;24.37;33.87
63708;BME280;67643;-34.198;22.084;2023-04-28T13:04:27;100264.34;;;24.32;34.22
63708;BME280;67643;-34.198;22.084;2023-04-28T13:06:57;100259.24;;;24.63;33.72
63708;BME280;67643;-34.198;22.084;2023-04-28T13:09:25;100257.91;;;24.84;33.52
63708;BME280;67643;-34.198;22.084;2023-04-28T13:11:54;100261.03;;;24.96;33.09
63708;BME280;67643;-34.198;22.084;2023-04-28T13:14:23;100263.11;;;24.76;33.33
63708;BME280;67643;-34.198;22.084;2023-04-28T13:16:53;100259.78;;;24.84;33.27
63708;BME280;67643;-34.198;22.084;2023-04-28T13:19:22;100264.78;;;24.61;33.23
63708;BME280;67643;-34.198;22.084;2023-04-28T13:21:50;100272.04;;;24.55;33.41
63708;BME280;67643;-34.198;22.084;2023-04-28T13:24:19;100272.44;;;24.53;33.56
63708;BME280;67643;-34.198;22.084;2023-04-28T13:26:48;100267.22;;;24.66;33.30
63708;BME280;67643;-34.198;22.084;2023-04-28T13:29:16;100269.02;;;24.70;32.99
63708;BME280;67643;-34.198;22.084;2023-04-28T13:31:44;100270.00;;;24.70;33.12
63708;BME280;67643;-34.198;22.084;2023-04-28T13:34:13;100271.75;;;24.33;33.45
63708;BME280;67643;-34.198;22.084;2023-04-28T13:36:42;100273.65;;;24.31;33.16
63708;BME280;67643;-34.198;22.084;2023-04-28T13:39:10;100273.99;;;23.96;33.80
63708;BME280;67643;-34.198;22.084;2023-04-28T13:41:39;100269.92;;;24.20;33.54
63708;BME280;67643;-34.198;22.084;2023-04-28T13:44:08;100274.18;;;24.13;33.63
63708;BME280;67643;-34.198;22.084;2023-04-28T13:46:37;100277.01;;;24.37;33.71
63708;BME280;67643;-34.198;22.084;2023-04-28T13:49:06;100282.95;;;24.47;33.83
63708;BME280;67643;-34.198;22.084;2023-04-28T13:51:34;100285.74;;;24.01;33.84
63708;BME280;67643;-34.198;22.084;2023-04-28T13:54:03;100290.82;;;24.18;33.99
63708;BME280;67643;-34.198;22.084;2023-04-28T13:56:32;100298.59;;;24.22;34.20
63708;BME280;67643;-34.198;22.084;2023-04-28T13:59:00;100295.21;;;23.96;34.48
63708;BME280;67643;-34.198;22.084;2023-04-28T16:05:43;100349.69;;;19.27;47.24
63708;BME280;67643;-34.198;22.084;2023-04-28T16:08:12;100355.14;;;20.41;43.42
63708;BME280;67643;-34.198;22.084;2023-04-28T16:10:40;100351.83;;;21.74;40.65
63708;BME280;67643;-34.198;22.084;2023-04-28T16:13:08;100350.15;;;21.58;40.06
63708;BME280;67643;-34.198;22.084;2023-04-28T16:15:37;100349.37;;;22.23;38.36
63708;BME280;67643;-34.198;22.084;2023-04-28T16:18:06;100347.61;;;22.43;38.01
63708;BME280;67643;-34.198;22.084;2023-04-28T16:20:35;100348.93;;;22.71;37.48
63708;BME280;67643;-34.198;22.084;2023-04-28T16:23:04;100353.49;;;22.22;37.62
63708;BME280;67643;-34.198;22.084;2023-04-28T16:25:33;100359.34;;;22.08;38.08
63708;BME280;67643;-34.198;22.084;2023-04-28T16:28:02;100356.18;;;22.84;36.78
63708;BME280;67643;-34.198;22.084;2023-04-28T16:30:30;100363.86;;;22.87;36.95
63708;BME280;67643;-34.198;22.084;2023-04-28T16:32:59;100364.37;;;22.80;36.62
63708;BME280;67643;-34.198;22.084;2023-04-28T16:35:27;100362.03;;;22.55;36.70
63708;BME280;67643;-34.198;22.084;2023-04-28T16:37:56;100367.09;;;22.81;36.77
63708;BME280;67643;-34.198;22.084;2023-04-28T16:40:24;100379.30;;;22.16;35.86
63708;BME280;67643;-34.198;22.084;2023-04-28T16:42:53;100379.69;;;21.92;36.13
63708;BME280;67643;-34.198;22.084;2023-04-28T16:45:22;100382.77;;;20.92;36.95
63708;BME280;67643;-34.198;22.084;2023-04-28T16:47:50;100388.62;;;21.77;35.84
63708;BME280;67643;-34.198;22.084;2023-04-28T16:50:18;100389.64;;;21.67;35.60
63708;BME280;67643;-34.198;22.084;2023-04-28T16:52:46;100387.76;;;21.30;35.90
63708;BME280;67643;-34.198;22.084;2023-04-28T16:55:15;100389.13;;;21.49;36.01
63708;BME280;67643;-34.198;22.084;2023-04-28T16:57:44;100394.81;;;21.35;35.83
63708;BME280;67643;-34.198;22.084;2023-04-28T17:00:13;100393.75;;;20.95;37.33
63708;BME280;67643;-34.198;22.084;2023-04-28T17:02:42;100395.90;;;20.75;37.83